Time;durP1;ratioP1;P1;durP2;ratioP2;P2;SDS_P1;SDS_P2;PMS_P1;PMS_P2;Temp;Humidity;BMP_temperature;BMP_pressure;BME280_temperature;BME280_humidity;BME280_pressure;Samples;Min_cycle;Max_cycle;Signal;HPM_P1;HPM_P2
2022/11/28 00:02:13;;;;;;;11.40;7.13;;;7.70;99.90;;;;;;4791392;30;20184;-66
2022/11/28 00:04:39;;;;;;;9.30;7.07;;;7.70;99.90;;;;;;4935020;28;20215;-66
2022/11/28 00:07:05;;;;;;;11.00;6.10;;;7.70;99.90;;;;;;5029773;28;20207;-66
2022/11/28 00:09:30;;;;;;;8.70;7.10;;;7.70;99.90;;;;;;5027151;28;20356;-66
2022/11/28 00:11:56;;;;;;;8.70;6.73;;;7.70;99.90;;;;;;4892439;28;56510;-66
2022/11/28 00:14:22;;;;;;;7.67;6.90;;;7.70;99.90;;;;;;4403864;30;59305;-66
2022/11/28 00:16:48;;;;;;;8.73;7.07;;;7.70;99.90;;;;;;4172324;33;20244;-66
2022/11/28 00:19:14;;;;;;;7.00;6.30;;;7.70;99.90;;;;;;4017858;35;20235;-66
2022/11/28 00:21:41;;;;;;;7.13;6.43;;;7.80;99.90;;;;;;4029180;35;20223;-66
2022/11/28 00:24:07;;;;;;;9.00;6.60;;;7.80;99.90;;;;;;4029309;35;20673;-66
2022/11/28 00:26:38;;;;;;;7.47;6.57;;;7.90;99.90;;;;;;4009182;35;20730;-66
2022/11/28 00:29:06;;;;;;;7.67;6.40;;;7.90;99.90;;;;;;4029123;35;20227;-66
2022/11/28 00:31:34;;;;;;;9.13;7.13;;;7.90;99.90;;;;;;4009897;35;20234;-66
2022/11/28 00:34:00;;;;;;;9.87;6.67;;;7.90;99.90;;;;;;4029618;35;20306;-65
2022/11/28 00:36:28;;;;;;;7.13;6.40;;;7.90;99.90;;;;;;4009460;35;20695;-66
2022/11/28 00:38:54;;;;;;;9.10;6.77;;;7.90;99.90;;;;;;4008969;35;20223;-65
2022/11/28 00:41:23;;;;;;;7.20;6.60;;;7.90;99.90;;;;;;4009259;35;20250;-66
2022/11/28 00:43:50;;;;;;;7.43;6.57;;;7.90;99.90;;;;;;4008967;35;20226;-65
2022/11/28 00:46:16;;;;;;;7.63;6.20;;;7.90;99.90;;;;;;4009207;35;20223;-65
2022/11/28 00:48:42;;;;;;;8.27;6.30;;;7.80;99.90;;;;;;4009421;35;20320;-65
2022/11/28 00:51:15;;;;;;;9.97;7.47;;;7.80;99.90;;;;;;4008847;35;20258;-65
2022/11/28 00:53:42;;;;;;;7.23;6.30;;;7.70;99.90;;;;;;4009092;35;20697;-66
2022/11/28 00:56:13;;;;;;;7.90;7.00;;;7.60;99.90;;;;;;4008855;35;20294;-65
2022/11/28 00:58:39;;;;;;;7.37;6.47;;;7.60;99.90;;;;;;4009039;35;20222;-65
2022/11/28 01:01:12;;;;;;;6.80;6.10;;;7.50;99.90;;;;;;4008588;35;20239;-66
2022/11/28 01:03:40;;;;;;;7.57;6.73;;;7.50;99.90;;;;;;4008704;35;20226;-66
2022/11/28 01:06:07;;;;;;;7.53;6.73;;;7.40;99.90;;;;;;4028526;35;20223;-66
2022/11/28 01:08:33;;;;;;;7.73;6.87;;;7.30;99.90;;;;;;4008713;35;20239;-66
2022/11/28 01:10:59;;;;;;;8.23;7.37;;;7.30;99.90;;;;;;4008433;35;20239;-67
2022/11/28 01:13:24;;;;;;;8.73;7.20;;;7.30;99.90;;;;;;4108464;33;59633;-66
2022/11/28 01:15:50;;;;;;;8.80;7.37;;;7.20;99.90;;;;;;4278240;32;20578;-67
2022/11/28 01:18:16;;;;;;;8.47;7.37;;;7.20;99.90;;;;;;4419352;32;20797;-66
2022/11/28 01:20:42;;;;;;;8.27;6.97;;;7.10;99.90;;;;;;4439985;32;20224;-66
2022/11/28 01:23:08;;;;;;;8.10;7.10;;;7.10;99.90;;;;;;4440105;32;20225;-66
2022/11/28 01:25:34;;;;;;;9.07;7.77;;;7.00;99.90;;;;;;4438926;32;20194;-66
2022/11/28 01:27:59;;;;;;;7.53;6.73;;;7.00;99.90;;;;;;4439892;32;20233;-66
2022/11/28 01:30:25;;;;;;;8.00;7.17;;;7.00;99.90;;;;;;4439911;32;20214;-66
2022/11/28 01:32:51;;;;;;;9.10;7.00;;;7.00;99.90;;;;;;4440157;32;20199;-65
2022/11/28 01:35:17;;;;;;;9.10;7.27;;;7.00;99.90;;;;;;4440317;32;20660;-66
2022/11/28 01:37:42;;;;;;;7.47;6.77;;;7.00;99.90;;;;;;4440417;32;20202;-66
2022/11/28 01:40:10;;;;;;;8.63;6.73;;;6.90;99.90;;;;;;4439691;32;20229;-65
2022/11/28 01:42:36;;;;;;;10.83;7.33;;;6.90;99.90;;;;;;4439778;32;20208;-66
2022/11/28 01:45:07;;;;;;;10.23;7.93;;;6.90;99.90;;;;;;4439901;32;20207;-66
2022/11/28 01:47:34;;;;;;;8.23;7.43;;;6.80;99.90;;;;;;4451453;32;20253;-67
2022/11/28 01:50:02;;;;;;;7.43;6.70;;;6.80;99.90;;;;;;4439580;32;20302;-66
2022/11/28 01:52:27;;;;;;;12.43;8.20;;;6.80;99.90;;;;;;4451492;32;20694;-65
2022/11/28 01:54:58;;;;;;;9.73;7.87;;;6.80;99.90;;;;;;4438498;32;20245;-66
2022/11/28 01:57:25;;;;;;;9.73;8.00;;;6.70;99.90;;;;;;4439604;32;20193;-66
2022/11/28 02:00:07;;;;;;;11.50;7.10;;;6.70;99.90;;;;;;4439533;32;20390;-66
2022/11/28 02:02:48;;;;;;;11.93;8.33;;;6.60;99.90;;;;;;4451228;32;20198;-66
2022/11/28 02:05:16;;;;;;;10.10;7.07;;;6.60;99.90;;;;;;4439522;32;20208;-66
2022/11/28 02:07:43;;;;;;;8.60;7.70;;;6.60;99.90;;;;;;4451091;32;20253;-66
2022/11/28 02:10:14;;;;;;;9.77;7.37;;;6.60;99.90;;;;;;4439298;32;20226;-66
2022/11/28 02:12:39;;;;;;;10.10;8.27;;;6.60;99.90;;;;;;4476239;31;56702;-67
2022/11/28 02:15:42;;;;;;;7.93;7.00;;;6.60;99.90;;;;;;4582719;30;20267;-67
2022/11/28 02:18:44;;;;;;;11.60;8.13;;;6.50;99.90;;;;;;4674332;30;20209;-66
2022/11/28 02:21:23;;;;;;;11.50;8.40;;;6.50;99.90;;;;;;4700349;30;20277;-66
2022/11/28 02:24:07;;;;;;;12.40;8.27;;;6.50;99.90;;;;;;4700610;30;20171;-67
2022/11/28 02:27:10;;;;;;;9.27;8.27;;;6.50;99.90;;;;;;4700685;30;20202;-66
2022/11/28 02:30:01;;;;;;;11.23;7.80;;;6.50;99.90;;;;;;4713918;30;20221;-66
2022/11/28 02:32:48;;;;;;;9.43;8.47;;;6.40;99.90;;;;;;4713681;30;20206;-66
2022/11/28 02:35:19;;;;;;;9.27;8.13;;;6.50;99.90;;;;;;4713601;30;20183;-66
2022/11/28 02:38:28;;;;;;;12.47;8.60;;;6.50;99.90;;;;;;4700668;30;20230;-66
2022/11/28 02:41:02;;;;;;;9.13;7.77;;;6.50;99.90;;;;;;4705889;30;20222;-66
2022/11/28 02:43:43;;;;;;;10.97;8.70;;;6.50;99.90;;;;;;4713552;30;20189;-66
2022/11/28 02:46:42;;;;;;;9.23;7.50;;;6.60;99.90;;;;;;4713597;30;20654;-66
2022/11/28 02:49:30;;;;;;;11.50;7.50;;;6.60;99.90;;;;;;4700705;30;20171;-67
2022/11/28 02:52:07;;;;;;;8.70;7.27;;;6.60;99.90;;;;;;4700130;30;20635;-66
2022/11/28 02:54:35;;;;;;;9.87;7.90;;;6.50;99.90;;;;;;4700473;30;20199;-66
2022/11/28 02:57:02;;;;;;;9.70;7.40;;;6.50;99.90;;;;;;4713746;30;20605;-66
2022/11/28 02:59:38;;;;;;;8.83;7.93;;;6.50;99.90;;;;;;4700079;30;20771;-67
2022/11/28 03:02:28;;;;;;;10.77;8.00;;;6.50;99.90;;;;;;4700134;30;20650;-66
2022/11/28 03:05:18;;;;;;;12.47;8.67;;;6.50;99.90;;;;;;4713224;30;20187;-66
2022/11/28 03:08:04;;;;;;;11.33;8.80;;;6.50;99.90;;;;;;4700070;30;20262;-66
2022/11/28 03:10:55;;;;;;;11.00;8.17;;;6.50;99.90;;;;;;4700040;30;20260;-66
2022/11/28 03:13:26;;;;;;;8.27;7.27;;;6.50;99.90;;;;;;4720987;29;20686;-67
2022/11/28 03:16:16;;;;;;;8.50;7.60;;;6.50;99.90;;;;;;4778369;29;20198;-66
2022/11/28 03:19:00;;;;;;;10.37;8.27;;;6.60;99.90;;;;;;4863443;29;20209;-66
2022/11/28 03:21:43;;;;;;;9.70;8.60;;;6.50;99.90;;;;;;4860786;29;20323;-66
2022/11/28 03:24:23;;;;;;;9.00;7.83;;;6.50;99.90;;;;;;4860825;29;20173;-66
2022/11/28 03:27:04;;;;;;;11.67;8.87;;;6.50;99.90;;;;;;4861222;29;20583;-66
2022/11/28 03:29:33;;;;;;;11.63;9.03;;;6.50;99.90;;;;;;4860966;29;20224;-66
2022/11/28 03:32:14;;;;;;;11.53;9.13;;;6.40;99.90;;;;;;4860734;29;20185;-66
2022/11/28 03:34:45;;;;;;;11.17;9.10;;;6.40;99.90;;;;;;4862335;29;20166;-66
2022/11/28 03:37:16;;;;;;;12.03;8.73;;;6.40;99.90;;;;;;4864702;29;20165;-66
2022/11/28 03:39:47;;;;;;;11.67;9.20;;;6.40;99.90;;;;;;4878225;29;20311;-66
2022/11/28 03:42:20;;;;;;;11.27;8.50;;;6.40;99.90;;;;;;4864429;29;20173;-66
2022/11/28 03:45:19;;;;;;;9.43;8.43;;;6.40;99.90;;;;;;4864310;29;20162;-66
2022/11/28 03:47:52;;;;;;;12.33;8.33;;;6.40;99.90;;;;;;4863668;29;20850;-66
2022/11/28 03:50:25;;;;;;;10.57;8.17;;;6.40;99.90;;;;;;4864193;29;20197;-66
2022/11/28 03:53:02;;;;;;;10.37;8.60;;;6.40;99.90;;;;;;4862744;29;20188;-66
2022/11/28 03:55:53;;;;;;;11.53;8.57;;;6.50;99.90;;;;;;4862709;29;20173;-69
2022/11/28 03:58:26;;;;;;;9.57;7.77;;;6.50;99.90;;;;;;4864113;29;20177;-69
2022/11/28 04:01:06;;;;;;;9.53;7.73;;;6.50;99.90;;;;;;4863827;29;20702;-69
2022/11/28 04:04:04;;;;;;;9.40;8.50;;;6.50;99.90;;;;;;4878049;29;20647;-69
2022/11/28 04:06:57;;;;;;;10.53;8.33;;;6.50;99.90;;;;;;4862067;29;20196;-69
2022/11/28 04:09:32;;;;;;;8.90;7.70;;;6.50;99.90;;;;;;4862392;29;20248;-69
2022/11/28 04:12:07;;;;;;;12.13;8.47;;;6.50;99.90;;;;;;4858057;29;20217;-69
2022/11/28 04:14:59;;;;;;;9.67;8.10;;;6.50;99.90;;;;;;4901166;29;20198;-70
2022/11/28 04:17:31;;;;;;;12.30;8.20;;;6.50;99.90;;;;;;4969851;28;20284;-68
2022/11/28 04:20:09;;;;;;;10.13;8.13;;;6.50;99.90;;;;;;4956431;28;20206;-69
2022/11/28 04:22:51;;;;;;;14.47;9.07;;;6.50;99.90;;;;;;4958397;28;20521;-68
2022/11/28 04:25:20;;;;;;;9.47;8.07;;;6.50;99.90;;;;;;4957981;28;20643;-70
2022/11/28 04:27:56;;;;;;;10.43;8.27;;;6.50;99.90;;;;;;4957887;28;20186;-69
2022/11/28 04:30:22;;;;;;;9.43;8.00;;;6.50;99.90;;;;;;4957704;28;20655;-68
2022/11/28 04:32:56;;;;;;;9.07;8.03;;;6.50;99.90;;;;;;4957520;28;20178;-69
2022/11/28 04:35:31;;;;;;;11.13;7.83;;;6.50;99.90;;;;;;4957598;28;20710;-69
2022/11/28 04:37:59;;;;;;;9.87;8.43;;;6.50;99.90;;;;;;4957264;28;20177;-69
2022/11/28 04:40:28;;;;;;;10.67;8.00;;;6.60;99.90;;;;;;4957375;28;20205;-69
2022/11/28 04:42:59;;;;;;;8.27;7.33;;;6.60;99.90;;;;;;4957833;28;20249;-69
2022/11/28 04:45:39;;;;;;;9.90;8.30;;;6.60;99.90;;;;;;4955909;28;20178;-69
2022/11/28 04:48:06;;;;;;;9.90;7.93;;;6.50;99.90;;;;;;4957729;28;20198;-69
2022/11/28 04:50:46;;;;;;;8.37;7.53;;;6.60;99.90;;;;;;4957100;28;20198;-69
2022/11/28 04:53:19;;;;;;;8.37;7.23;;;6.60;99.90;;;;;;4957809;28;20266;-68
2022/11/28 04:55:56;;;;;;;10.37;7.40;;;6.60;99.90;;;;;;4957707;28;20157;-69
2022/11/28 04:58:30;;;;;;;8.40;7.40;;;6.60;99.90;;;;;;4957175;28;20240;-69
2022/11/28 05:00:57;;;;;;;9.97;7.50;;;6.70;99.90;;;;;;4957016;28;20197;-69
2022/11/28 05:03:29;;;;;;;11.03;7.47;;;6.60;99.90;;;;;;4957023;28;20588;-69
2022/11/28 05:05:55;;;;;;;9.87;7.30;;;6.60;99.90;;;;;;4955538;28;20639;-68
2022/11/28 05:08:21;;;;;;;10.03;7.43;;;6.60;99.90;;;;;;4955556;29;20233;-68
2022/11/28 05:10:47;;;;;;;7.80;7.00;;;6.70;99.90;;;;;;4955622;28;20230;-68
2022/11/28 05:13:13;;;;;;;9.33;8.33;;;6.60;99.90;;;;;;4990068;28;20199;-68
2022/11/28 05:15:39;;;;;;;8.43;7.53;;;6.70;99.90;;;;;;4980716;28;20193;-69
2022/11/28 05:18:05;;;;;;;10.07;8.23;;;6.70;99.90;;;;;;4976025;28;20707;-68
2022/11/28 05:20:31;;;;;;;7.90;7.10;;;6.70;99.90;;;;;;4975872;28;20280;-68
2022/11/28 05:22:56;;;;;;;9.80;7.70;;;6.70;99.90;;;;;;4976045;28;20205;-68
2022/11/28 05:25:22;;;;;;;9.33;7.90;;;6.80;99.90;;;;;;4975913;28;20216;-68
2022/11/28 05:27:48;;;;;;;8.63;7.40;;;6.70;99.90;;;;;;4975681;28;20200;-68
2022/11/28 05:30:14;;;;;;;9.17;7.10;;;6.70;99.90;;;;;;4975893;28;20193;-69
2022/11/28 05:32:40;;;;;;;9.90;7.70;;;6.70;99.90;;;;;;4975895;28;20256;-69
2022/11/28 05:35:06;;;;;;;8.97;7.50;;;6.80;99.90;;;;;;4975751;28;20184;-68
2022/11/28 05:37:33;;;;;;;7.90;7.00;;;6.90;99.90;;;;;;4975855;28;20654;-68
2022/11/28 05:39:59;;;;;;;8.80;7.50;;;6.90;99.90;;;;;;4975511;28;20205;-68
2022/11/28 05:42:25;;;;;;;8.80;7.30;;;6.80;99.90;;;;;;4975724;28;20228;-68
2022/11/28 05:44:51;;;;;;;9.13;7.33;;;6.80;99.90;;;;;;4958059;28;20208;-68
2022/11/28 05:47:17;;;;;;;8.70;7.37;;;6.80;99.90;;;;;;4958339;28;20579;-68
2022/11/28 05:49:44;;;;;;;10.33;7.53;;;6.70;99.90;;;;;;4975789;28;20204;-68
2022/11/28 05:52:10;;;;;;;7.93;7.13;;;6.70;99.90;;;;;;4975326;28;20181;-69
2022/11/28 05:54:36;;;;;;;9.30;6.90;;;6.80;99.90;;;;;;4958098;28;20188;-68
2022/11/28 05:57:02;;;;;;;8.07;7.27;;;6.80;99.90;;;;;;4957479;28;20599;-68
2022/11/28 05:59:27;;;;;;;8.17;7.27;;;6.80;99.90;;;;;;4957854;28;20697;-68
2022/11/28 06:01:53;;;;;;;8.73;7.50;;;6.90;99.90;;;;;;4975357;28;20177;-68
2022/11/28 06:04:19;;;;;;;8.87;7.27;;;6.90;99.90;;;;;;4975452;28;20177;-68
2022/11/28 06:06:44;;;;;;;8.53;7.70;;;6.90;99.90;;;;;;4975019;28;20170;-68
2022/11/28 06:09:10;;;;;;;9.50;8.07;;;6.90;99.90;;;;;;4975136;28;20562;-68
2022/11/28 06:11:36;;;;;;;10.63;8.40;;;6.90;99.90;;;;;;4957455;28;20674;-68
2022/11/28 06:14:02;;;;;;;8.53;7.00;;;6.90;99.90;;;;;;4967760;28;20535;-68
2022/11/28 06:16:30;;;;;;;9.13;7.23;;;6.90;99.90;;;;;;5010303;28;20182;-68
2022/11/28 06:18:58;;;;;;;9.40;7.40;;;6.90;99.90;;;;;;5033877;28;20207;-68
2022/11/28 06:21:24;;;;;;;8.07;7.17;;;6.90;99.90;;;;;;5034379;28;20644;-68
2022/11/28 06:23:50;;;;;;;8.77;7.57;;;6.90;99.90;;;;;;5016499;28;20530;-68
2022/11/28 06:26:19;;;;;;;8.00;6.87;;;6.80;99.90;;;;;;5034050;28;20549;-68
2022/11/28 06:28:45;;;;;;;8.77;7.70;;;6.80;99.90;;;;;;5034268;28;20191;-69
2022/11/28 06:31:12;;;;;;;7.93;6.77;;;6.90;99.90;;;;;;5033707;28;20533;-69
2022/11/28 06:33:38;;;;;;;9.10;7.10;;;6.90;99.90;;;;;;5015988;28;20175;-68
2022/11/28 06:36:05;;;;;;;11.57;7.03;;;6.90;99.90;;;;;;5033427;28;20175;-68
2022/11/28 06:38:31;;;;;;;7.37;6.60;;;6.90;99.90;;;;;;5033542;28;20179;-68
2022/11/28 06:41:07;;;;;;;8.17;7.00;;;6.80;99.90;;;;;;5032169;28;20195;-68
2022/11/28 06:43:33;;;;;;;7.97;7.17;;;6.80;99.90;;;;;;5033435;28;20210;-68
2022/11/28 06:45:59;;;;;;;8.90;7.23;;;6.80;99.90;;;;;;5033689;28;20644;-68
2022/11/28 06:48:25;;;;;;;7.87;6.93;;;6.80;99.90;;;;;;5031981;28;20230;-69
2022/11/28 06:50:52;;;;;;;9.23;7.30;;;6.80;99.90;;;;;;5033149;28;20683;-69
2022/11/28 06:53:18;;;;;;;10.33;7.93;;;6.80;99.90;;;;;;5033330;28;20175;-69
2022/11/28 06:55:45;;;;;;;10.53;7.20;;;6.90;99.90;;;;;;5032000;28;20171;-69
2022/11/28 06:58:11;;;;;;;9.40;7.57;;;6.90;99.90;;;;;;5033782;28;20556;-69
2022/11/28 07:00:36;;;;;;;8.27;6.57;;;7.00;99.90;;;;;;5033111;28;20195;-69
2022/11/28 07:03:03;;;;;;;9.63;7.90;;;7.00;99.90;;;;;;5033288;28;20254;-69
2022/11/28 07:05:29;;;;;;;9.07;7.70;;;6.90;99.90;;;;;;5033036;28;20171;-68
2022/11/28 07:07:59;;;;;;;11.27;7.80;;;7.00;99.90;;;;;;5031781;28;20714;-69
2022/11/28 07:10:26;;;;;;;8.23;7.43;;;7.00;99.90;;;;;;5036287;28;20195;-69
2022/11/28 07:12:54;;;;;;;9.37;7.50;;;7.00;99.90;;;;;;5035738;28;20187;-69
2022/11/28 07:15:20;;;;;;;9.60;7.73;;;7.00;99.90;;;;;;5055674;28;20190;-69
2022/11/28 07:17:46;;;;;;;10.90;7.80;;;7.00;99.90;;;;;;5055701;28;20538;-69
2022/11/28 07:20:12;;;;;;;10.77;8.03;;;7.00;99.90;;;;;;5056780;28;20225;-68
2022/11/28 07:22:38;;;;;;;11.27;7.43;;;7.00;99.90;;;;;;5055636;28;20183;-69
2022/11/28 07:25:04;;;;;;;8.50;7.63;;;7.00;99.90;;;;;;5056734;28;20173;-69
2022/11/28 07:27:30;;;;;;;8.33;7.53;;;7.10;99.90;;;;;;5055391;28;20198;-69
2022/11/28 07:29:55;;;;;;;11.10;7.93;;;7.10;99.90;;;;;;5056514;28;20611;-69
2022/11/28 07:32:21;;;;;;;7.60;6.80;;;7.10;99.90;;;;;;5055307;28;20182;-69
2022/11/28 07:34:47;;;;;;;8.13;7.33;;;7.10;99.90;;;;;;5056513;28;20224;-69
2022/11/28 07:37:14;;;;;;;10.30;7.93;;;7.10;99.90;;;;;;5056438;28;20174;-68
2022/11/28 07:39:41;;;;;;;8.60;7.70;;;7.10;99.90;;;;;;5056388;28;20198;-69
2022/11/28 07:42:07;;;;;;;8.03;7.17;;;7.10;99.90;;;;;;5056655;28;20646;-69
2022/11/28 07:44:32;;;;;;;8.60;7.70;;;7.10;99.90;;;;;;5055018;28;20182;-69
2022/11/28 07:46:58;;;;;;;10.20;7.70;;;7.10;99.90;;;;;;5054960;28;20178;-69
2022/11/28 07:49:24;;;;;;;8.97;7.40;;;7.10;99.90;;;;;;5056195;28;20721;-69
2022/11/28 07:51:49;;;;;;;11.20;7.80;;;7.20;99.90;;;;;;5054874;28;20183;-69
2022/11/28 07:54:15;;;;;;;7.83;7.03;;;7.20;99.90;;;;;;5054961;28;20171;-69
2022/11/28 07:56:41;;;;;;;11.93;7.23;;;7.20;99.90;;;;;;5056179;28;20180;-69
2022/11/28 07:59:07;;;;;;;8.70;6.63;;;7.20;99.90;;;;;;5056122;28;20515;-68
2022/11/28 08:01:34;;;;;;;8.90;7.10;;;7.20;99.90;;;;;;5056144;28;20670;-69
2022/11/28 08:04:02;;;;;;;8.20;7.40;;;7.30;99.90;;;;;;5056139;28;20174;-69
2022/11/28 08:06:29;;;;;;;9.03;6.53;;;7.30;99.90;;;;;;5056055;28;20171;-69
2022/11/28 08:08:57;;;;;;;9.97;7.23;;;7.30;99.90;;;;;;5055765;28;20199;-68
2022/11/28 08:11:24;;;;;;;9.63;6.77;;;7.30;99.90;;;;;;5055582;28;20343;-70
2022/11/28 08:13:50;;;;;;;8.93;6.87;;;7.30;99.90;;;;;;5068626;28;20194;-70
2022/11/28 08:16:18;;;;;;;9.63;7.20;;;7.30;99.90;;;;;;5019509;28;20192;-69
2022/11/28 08:18:45;;;;;;;12.03;7.30;;;7.30;99.90;;;;;;4998400;28;20632;-69
2022/11/28 08:21:17;;;;;;;10.83;7.30;;;7.30;99.90;;;;;;5015530;28;20199;-69
2022/11/28 08:23:44;;;;;;;9.13;7.20;;;7.30;99.90;;;;;;5016465;28;20670;-69
2022/11/28 08:26:15;;;;;;;8.57;7.70;;;7.30;99.90;;;;;;5016569;28;20267;-69
2022/11/28 08:28:42;;;;;;;9.23;7.53;;;7.30;99.90;;;;;;5016379;28;20211;-69
2022/11/28 08:31:17;;;;;;;7.23;6.53;;;7.30;99.90;;;;;;5015758;28;20727;-69
2022/11/28 08:33:44;;;;;;;7.17;6.47;;;7.30;99.90;;;;;;5015776;28;20159;-69
2022/11/28 08:36:12;;;;;;;9.40;7.30;;;7.30;99.90;;;;;;5015610;28;20599;-69
2022/11/28 08:38:38;;;;;;;10.23;7.27;;;7.30;99.90;;;;;;5015824;28;20191;-69
2022/11/28 08:41:06;;;;;;;12.73;7.50;;;7.40;99.90;;;;;;5015739;28;20192;-69
2022/11/28 08:43:36;;;;;;;7.70;6.90;;;7.40;99.90;;;;;;4998038;28;20184;-69
2022/11/28 08:46:02;;;;;;;7.53;6.40;;;7.40;99.90;;;;;;5015541;28;20183;-69
2022/11/28 08:48:29;;;;;;;8.23;6.73;;;7.50;99.90;;;;;;4998004;28;20195;-69
2022/11/28 08:50:56;;;;;;;9.43;6.97;;;7.50;99.90;;;;;;5015557;28;20192;-69
2022/11/28 08:53:22;;;;;;;8.80;7.10;;;7.50;99.90;;;;;;5015385;28;20175;-69
2022/11/28 08:55:48;;;;;;;8.80;7.20;;;7.50;99.90;;;;;;5014136;28;20187;-69
2022/11/28 08:58:13;;;;;;;7.03;6.33;;;7.50;99.90;;;;;;5015343;28;20176;-69
2022/11/28 09:00:41;;;;;;;8.90;6.90;;;7.50;99.90;;;;;;5015049;28;20196;-69
2022/11/28 09:03:09;;;;;;;8.27;6.87;;;7.50;99.90;;;;;;5015382;28;20199;-69
2022/11/28 09:05:35;;;;;;;7.57;6.77;;;7.50;99.90;;;;;;5015512;28;20176;-69
2022/11/28 09:08:00;;;;;;;10.07;6.83;;;7.50;99.90;;;;;;5015584;28;20192;-69
2022/11/28 09:10:26;;;;;;;7.63;6.73;;;7.40;99.90;;;;;;4997481;28;20206;-69
2022/11/28 09:12:52;;;;;;;8.40;7.43;;;7.40;99.90;;;;;;5015031;28;20567;-69
2022/11/28 09:15:18;;;;;;;9.43;7.30;;;7.40;99.90;;;;;;5029537;28;20683;-69
2022/11/28 09:17:44;;;;;;;9.47;7.50;;;7.40;99.90;;;;;;5034871;28;20668;-69
2022/11/28 09:20:10;;;;;;;10.00;7.27;;;7.40;99.90;;;;;;5049945;28;20630;-69
2022/11/28 09:22:36;;;;;;;8.33;7.43;;;7.40;99.90;;;;;;5034575;28;20225;-69
2022/11/28 09:25:02;;;;;;;8.83;7.00;;;7.40;99.90;;;;;;5034642;28;20179;-69
2022/11/28 09:27:28;;;;;;;8.73;7.50;;;7.40;99.90;;;;;;5034793;28;20202;-69
2022/11/28 09:29:54;;;;;;;10.13;7.57;;;7.50;99.90;;;;;;5034463;28;20195;-69
2022/11/28 09:32:20;;;;;;;11.40;7.57;;;7.50;99.90;;;;;;5033967;28;20182;-69
2022/11/28 09:34:46;;;;;;;7.73;6.93;;;7.50;99.90;;;;;;5034454;28;20182;-69
2022/11/28 09:37:11;;;;;;;8.70;7.80;;;7.50;99.90;;;;;;5034293;28;20698;-69
2022/11/28 09:39:37;;;;;;;9.37;7.40;;;7.50;99.90;;;;;;5034214;28;20195;-69
2022/11/28 09:42:27;;;;;;;8.27;6.10;;;7.50;99.90;;;;;;5049540;28;20171;-69
2022/11/28 09:45:00;;;;;;;9.40;7.70;;;7.50;99.90;;;;;;5034505;28;20589;-68
2022/11/28 09:47:28;;;;;;;9.87;7.60;;;7.60;99.90;;;;;;5034568;28;20187;-68
2022/11/28 09:50:14;;;;;;;8.87;7.87;;;7.60;99.90;;;;;;5033958;28;20266;-68
2022/11/28 09:52:45;;;;;;;9.50;7.27;;;7.60;99.90;;;;;;5049343;28;20175;-68
2022/11/28 09:55:17;;;;;;;12.47;7.93;;;7.60;99.90;;;;;;5034105;28;20703;-68
2022/11/28 09:57:46;;;;;;;9.20;7.27;;;7.60;99.90;;;;;;5034007;28;20193;-68
2022/11/28 10:00:17;;;;;;;11.90;8.87;;;7.60;99.90;;;;;;5033638;28;20195;-68
2022/11/28 10:02:55;;;;;;;13.77;8.47;;;7.60;99.90;;;;;;5049222;28;20182;-68
2022/11/28 10:05:38;;;;;;;10.93;9.00;;;7.60;99.90;;;;;;5033845;28;20159;-68
2022/11/28 10:08:20;;;;;;;9.67;7.93;;;7.50;99.90;;;;;;5033839;28;20191;-68
2022/11/28 10:11:06;;;;;;;11.57;7.90;;;7.50;99.90;;;;;;5049072;28;20654;-68
2022/11/28 10:13:50;;;;;;;13.20;8.07;;;7.50;99.90;;;;;;4993220;28;20198;-70
2022/11/28 10:16:49;;;;;;;9.53;8.00;;;7.50;99.90;;;;;;5033671;28;20163;-69
2022/11/28 10:19:18;;;;;;;8.90;8.00;;;7.40;99.90;;;;;;5034111;28;20221;-68
2022/11/28 10:21:50;;;;;;;10.37;8.43;;;7.40;99.90;;;;;;5033317;28;20171;-68
2022/11/28 10:24:21;;;;;;;16.87;9.10;;;7.40;99.90;;;;;;5032300;28;20600;-68
2022/11/28 10:26:53;;;;;;;11.97;8.43;;;7.40;99.90;;;;;;5033936;28;20502;-68
2022/11/28 10:29:37;;;;;;;13.50;8.50;;;7.40;99.90;;;;;;5032046;28;20198;-68
2022/11/28 10:32:04;;;;;;;10.50;7.87;;;7.50;99.90;;;;;;5033306;28;20163;-69
2022/11/28 10:34:32;;;;;;;9.17;8.17;;;7.50;99.90;;;;;;5033560;28;20217;-68
2022/11/28 10:37:04;;;;;;;10.23;8.43;;;7.50;99.90;;;;;;5033166;28;20539;-69
2022/11/28 10:39:30;;;;;;;10.83;8.43;;;7.60;99.90;;;;;;5033125;28;20294;-68
2022/11/28 10:42:17;;;;;;;12.63;8.63;;;7.60;99.90;;;;;;5033251;28;20278;-68
2022/11/28 10:45:12;;;;;;;13.67;8.50;;;7.60;99.90;;;;;;5033031;28;20163;-68
2022/11/28 10:48:00;;;;;;;11.37;8.23;;;7.60;99.90;;;;;;5033518;28;20230;-68
2022/11/28 10:50:29;;;;;;;10.47;7.60;;;7.70;99.90;;;;;;5031646;28;20207;-68
2022/11/28 10:53:22;;;;;;;10.23;8.00;;;7.70;99.90;;;;;;5033086;28;20537;-67
2022/11/28 10:56:16;;;;;;;9.67;7.90;;;7.70;99.90;;;;;;5033575;28;20524;-67
2022/11/28 10:59:02;;;;;;;10.60;8.20;;;7.70;99.90;;;;;;5033313;28;20203;-67
2022/11/28 11:01:37;;;;;;;10.57;8.07;;;7.70;99.90;;;;;;5033357;28;20159;-67
2022/11/28 11:04:04;;;;;;;13.07;8.40;;;7.60;99.90;;;;;;5033022;28;20309;-67
2022/11/28 11:06:30;;;;;;;12.57;8.27;;;7.60;99.90;;;;;;5033124;28;20175;-68
2022/11/28 11:08:55;;;;;;;11.47;8.40;;;7.60;99.90;;;;;;5031589;28;20210;-68
2022/11/28 11:11:27;;;;;;;10.70;8.27;;;7.60;99.90;;;;;;5033374;28;20206;-68
2022/11/28 11:14:05;;;;;;;12.07;8.03;;;7.60;99.90;;;;;;5031633;28;20237;-68
2022/11/28 11:16:54;;;;;;;13.37;8.57;;;7.60;99.90;;;;;;5031737;28;20171;-68
2022/11/28 11:19:29;;;;;;;12.60;8.50;;;7.60;99.90;;;;;;5031717;28;20206;-68
2022/11/28 11:22:06;;;;;;;11.73;8.70;;;7.60;99.90;;;;;;5033006;28;20167;-68
2022/11/28 11:24:32;;;;;;;9.97;8.33;;;7.60;99.90;;;;;;5033253;28;20270;-68
2022/11/28 11:27:13;;;;;;;11.33;8.90;;;7.50;99.90;;;;;;5031782;28;20183;-68
2022/11/28 11:29:39;;;;;;;12.00;7.87;;;7.50;99.90;;;;;;5031598;28;20260;-69
2022/11/28 11:32:16;;;;;;;12.13;8.97;;;7.60;99.90;;;;;;5031634;28;20640;-68
2022/11/28 11:34:44;;;;;;;12.37;8.93;;;7.60;99.90;;;;;;5031616;28;20174;-68
2022/11/28 11:37:20;;;;;;;12.67;8.90;;;7.60;99.90;;;;;;5031414;28;20171;-68
2022/11/28 11:39:49;;;;;;;11.33;8.33;;;7.60;99.90;;;;;;5032604;28;20245;-67
2022/11/28 11:42:27;;;;;;;14.40;9.53;;;7.60;99.90;;;;;;5031499;28;20233;-69
2022/11/28 11:44:53;;;;;;;11.37;9.20;;;7.60;99.90;;;;;;5033056;28;20163;-68
2022/11/28 11:47:37;;;;;;;11.47;8.40;;;7.70;99.90;;;;;;5031460;28;20241;-68
2022/11/28 11:50:04;;;;;;;9.43;7.37;;;7.70;99.90;;;;;;5031400;28;20195;-68
2022/11/28 11:52:30;;;;;;;12.40;8.57;;;7.70;99.90;;;;;;5031239;28;20176;-68
2022/11/28 11:54:56;;;;;;;8.73;7.50;;;7.70;99.90;;;;;;5034492;28;20171;-68
2022/11/28 11:57:23;;;;;;;11.10;8.83;;;7.80;99.90;;;;;;5035041;28;20187;-72
2022/11/28 12:00:13;;;;;;;11.33;8.80;;;7.80;99.90;;;;;;5036372;28;20629;-69
2022/11/28 12:02:46;;;;;;;11.47;8.07;;;7.80;99.90;;;;;;5036158;28;20168;-69
2022/11/28 12:05:18;;;;;;;13.43;8.83;;;7.80;99.90;;;;;;5036489;28;20163;-69
2022/11/28 12:08:10;;;;;;;13.47;8.53;;;7.80;99.90;;;;;;5034550;28;20202;-69
2022/11/28 12:11:34;;;;;;;13.37;9.03;;;7.80;99.90;;;;;;5034866;28;20690;-68
2022/11/28 12:14:30;;;;;;;13.83;9.13;;;7.80;99.90;;;;;;4955905;29;20197;-69
2022/11/28 12:17:26;;;;;;;11.87;8.73;;;7.80;99.90;;;;;;5016425;28;20172;-69
2022/11/28 12:20:39;;;;;;;12.17;9.03;;;7.80;99.90;;;;;;4998464;28;20700;-69
2022/11/28 12:23:23;;;;;;;14.00;9.33;;;7.80;99.90;;;;;;5016621;28;20220;-69
2022/11/28 12:26:09;;;;;;;12.30;8.47;;;7.80;99.90;;;;;;5017289;28;20203;-69
2022/11/28 12:29:22;;;;;;;14.60;9.93;;;7.80;99.90;;;;;;4986320;28;20226;-68
2022/11/28 12:32:06;;;;;;;13.77;8.53;;;7.80;99.90;;;;;;4989536;28;20199;-69
2022/11/28 12:35:03;;;;;;;12.90;9.80;;;7.80;99.90;;;;;;4998355;28;20222;-69
2022/11/28 12:37:56;;;;;;;13.57;9.00;;;7.80;99.90;;;;;;4997503;28;20184;-68
2022/11/28 12:40:37;;;;;;;10.90;8.80;;;7.80;99.90;;;;;;4998118;28;20240;-68
2022/11/28 12:43:36;;;;;;;12.77;8.80;;;7.80;99.90;;;;;;5016750;28;20552;-68
2022/11/28 12:46:26;;;;;;;11.90;8.03;;;7.80;99.90;;;;;;5015784;28;20645;-68
2022/11/28 12:49:04;;;;;;;11.47;8.17;;;7.80;99.90;;;;;;5015519;28;20237;-68
2022/11/28 12:51:39;;;;;;;12.10;8.60;;;7.80;99.90;;;;;;4997876;28;20545;-68
2022/11/28 12:54:24;;;;;;;13.57;8.83;;;7.80;99.90;;;;;;5015347;28;20217;-68
2022/11/28 12:57:32;;;;;;;13.90;9.10;;;7.70;99.90;;;;;;4997990;28;20225;-68
2022/11/28 13:00:05;;;;;;;11.73;8.70;;;7.70;99.90;;;;;;4979233;28;20215;-68
2022/11/28 13:02:49;;;;;;;10.00;8.07;;;7.70;99.90;;;;;;4998169;28;20176;-68
2022/11/28 13:05:24;;;;;;;12.60;8.47;;;7.70;99.90;;;;;;5015341;28;20156;-69
2022/11/28 13:08:14;;;;;;;12.00;8.67;;;7.70;99.90;;;;;;4997432;28;20202;-68
2022/11/28 13:11:03;;;;;;;12.70;8.77;;;7.70;99.90;;;;;;4998478;28;20594;-69
2022/11/28 13:13:45;;;;;;;18.47;9.00;;;7.70;99.90;;;;;;4997580;28;20176;-68
2022/11/28 13:16:41;;;;;;;12.10;8.27;;;7.70;99.90;;;;;;5015654;28;20572;-69
2022/11/28 13:19:36;;;;;;;14.27;10.10;;;7.70;99.90;;;;;;5015259;28;20174;-68
2022/11/28 13:22:04;;;;;;;12.47;8.80;;;7.60;99.90;;;;;;4997401;28;20176;-68
2022/11/28 13:24:49;;;;;;;12.20;8.73;;;7.60;99.90;;;;;;4997429;28;20242;-68